sensor_id;sensor_type;location;lat;lon;timestamp;temperature;humidity
3854;DHT22;1942;48.770;8.934;2022-07-10T00:00:25;16.40;99.90
3854;DHT22;1942;48.770;8.934;2022-07-10T00:02:52;16.40;99.90
3854;DHT22;1942;48.770;8.934;2022-07-10T00:05:19;16.30;99.90
3854;DHT22;1942;48.770;8.934;2022-07-10T00:07:46;16.30;99.90
3854;DHT22;1942;48.770;8.934;2022-07-10T00:10:16;16.30;99.90
3854;DHT22;1942;48.770;8.934;2022-07-10T00:12:43;16.30;99.90
3854;DHT22;1942;48.770;8.934;2022-07-10T00:15:10;16.30;99.90
3854;DHT22;1942;48.770;8.934;2022-07-10T00:17:37;16.30;99.90
3854;DHT22;1942;48.770;8.934;2022-07-10T00:20:06;16.30;99.90
3854;DHT22;1942;48.770;8.934;2022-07-10T00:22:33;16.40;99.90
3854;DHT22;1942;48.770;8.934;2022-07-10T00:25:00;16.40;99.90
3854;DHT22;1942;48.770;8.934;2022-07-10T00:27:29;16.40;99.90
3854;DHT22;1942;48.770;8.934;2022-07-10T00:29:55;16.30;99.90
3854;DHT22;1942;48.770;8.934;2022-07-10T00:32:23;16.30;99.90
3854;DHT22;1942;48.770;8.934;2022-07-10T00:34:49;16.20;99.90
3854;DHT22;1942;48.770;8.934;2022-07-10T00:37:16;16.20;99.90
3854;DHT22;1942;48.770;8.934;2022-07-10T00:39:43;16.20;99.90
3854;DHT22;1942;48.770;8.934;2022-07-10T00:42:13;16.20;99.90
3854;DHT22;1942;48.770;8.934;2022-07-10T00:44:42;16.20;99.90
3854;DHT22;1942;48.770;8.934;2022-07-10T00:47:09;16.30;99.90
3854;DHT22;1942;48.770;8.934;2022-07-10T00:49:38;16.30;99.90
3854;DHT22;1942;48.770;8.934;2022-07-10T00:52:07;16.30;99.90
3854;DHT22;1942;48.770;8.934;2022-07-10T00:54:34;16.30;99.90
3854;DHT22;1942;48.770;8.934;2022-07-10T00:57:03;16.30;99.90
3854;DHT22;1942;48.770;8.934;2022-07-10T00:59:31;16.40;99.90
3854;DHT22;1942;48.770;8.934;2022-07-10T01:02:00;16.30;99.90
3854;DHT22;1942;48.770;8.934;2022-07-10T01:04:27;16.40;99.90
3854;DHT22;1942;48.770;8.934;2022-07-10T01:06:54;16.40;99.90
3854;DHT22;1942;48.770;8.934;2022-07-10T01:09:21;16.40;99.90
3854;DHT22;1942;48.770;8.934;2022-07-10T01:11:48;16.40;99.90
3854;DHT22;1942;48.770;8.934;2022-07-10T01:14:15;16.30;99.90
3854;DHT22;1942;48.770;8.934;2022-07-10T01:16:43;16.30;99.90
3854;DHT22;1942;48.770;8.934;2022-07-10T01:19:11;16.20;99.90
3854;DHT22;1942;48.770;8.934;2022-07-10T01:21:39;16.30;99.90
3854;DHT22;1942;48.770;8.934;2022-07-10T01:24:07;16.30;99.90
3854;DHT22;1942;48.770;8.934;2022-07-10T01:26:34;16.20;99.90
3854;DHT22;1942;48.770;8.934;2022-07-10T01:29:03;16.20;99.90
3854;DHT22;1942;48.770;8.934;2022-07-10T01:31:30;16.20;99.90
3854;DHT22;1942;48.770;8.934;2022-07-10T01:33:58;16.20;99.90
3854;DHT22;1942;48.770;8.934;2022-07-10T01:36:28;16.10;99.90
3854;DHT22;1942;48.770;8.934;2022-07-10T01:38:57;16.20;99.90
3854;DHT22;1942;48.770;8.934;2022-07-10T01:41:25;16.20;99.90
3854;DHT22;1942;48.770;8.934;2022-07-10T01:43:52;16.20;99.90
3854;DHT22;1942;48.770;8.934;2022-07-10T01:46:19;16.20;99.90
3854;DHT22;1942;48.770;8.934;2022-07-10T01:48:46;16.10;99.90
3854;DHT22;1942;48.770;8.934;2022-07-10T01:51:13;16.20;99.90
3854;DHT22;1942;48.770;8.934;2022-07-10T01:53:40;16.10;99.90
3854;DHT22;1942;48.770;8.934;2022-07-10T01:56:10;16.10;99.90
3854;DHT22;1942;48.770;8.934;2022-07-10T01:58:38;16.00;99.90
3854;DHT22;1942;48.770;8.934;2022-07-10T02:01:05;16.00;99.90
3854;DHT22;1942;48.770;8.934;2022-07-10T02:03:32;15.90;99.90
3854;DHT22;1942;48.770;8.934;2022-07-10T02:06:17;15.90;99.90
3854;DHT22;1942;48.770;8.934;2022-07-10T02:08:44;15.90;99.90
3854;DHT22;1942;48.770;8.934;2022-07-10T02:11:12;15.80;99.90
3854;DHT22;1942;48.770;8.934;2022-07-10T02:13:39;15.80;99.90
3854;DHT22;1942;48.770;8.934;2022-07-10T02:16:06;15.80;99.90
3854;DHT22;1942;48.770;8.934;2022-07-10T02:18:33;15.80;99.90
3854;DHT22;1942;48.770;8.934;2022-07-10T02:21:00;15.80;99.90
3854;DHT22;1942;48.770;8.934;2022-07-10T02:23:27;15.80;99.90
3854;DHT22;1942;48.770;8.934;2022-07-10T02:25:54;15.90;99.90
3854;DHT22;1942;48.770;8.934;2022-07-10T02:28:22;15.90;99.90
3854;DHT22;1942;48.770;8.934;2022-07-10T02:30:50;16.10;99.90
3854;DHT22;1942;48.770;8.934;2022-07-10T02:33:16;16.10;99.90
3854;DHT22;1942;48.770;8.934;2022-07-10T02:35:43;16.20;99.90
3854;DHT22;1942;48.770;8.934;2022-07-10T02:38:10;16.20;99.90
3854;DHT22;1942;48.770;8.934;2022-07-10T02:40:37;16.20;99.90
3854;DHT22;1942;48.770;8.934;2022-07-10T02:43:03;16.20;99.90
3854;DHT22;1942;48.770;8.934;2022-07-10T02:45:31;16.20;99.90
3854;DHT22;1942;48.770;8.934;2022-07-10T02:47:58;16.20;99.90
3854;DHT22;1942;48.770;8.934;2022-07-10T02:50:25;16.20;99.90
3854;DHT22;1942;48.770;8.934;2022-07-10T02:52:52;16.20;99.90
3854;DHT22;1942;48.770;8.934;2022-07-10T02:55:18;16.10;99.90
3854;DHT22;1942;48.770;8.934;2022-07-10T02:57:45;16.00;99.90
3854;DHT22;1942;48.770;8.934;2022-07-10T03:00:12;16.00;99.90
3854;DHT22;1942;48.770;8.934;2022-07-10T03:02:40;16.00;99.90
3854;DHT22;1942;48.770;8.934;2022-07-10T03:05:08;16.00;99.90
3854;DHT22;1942;48.770;8.934;2022-07-10T03:07:34;16.00;99.90
3854;DHT22;1942;48.770;8.934;2022-07-10T03:10:01;16.10;99.90
3854;DHT22;1942;48.770;8.934;2022-07-10T03:12:28;16.10;99.90
3854;DHT22;1942;48.770;8.934;2022-07-10T03:14:55;16.10;99.90
3854;DHT22;1942;48.770;8.934;2022-07-10T03:17:22;16.00;99.90
3854;DHT22;1942;48.770;8.934;2022-07-10T03:19:50;16.00;99.90
3854;DHT22;1942;48.770;8.934;2022-07-10T03:22:16;15.90;99.90
3854;DHT22;1942;48.770;8.934;2022-07-10T03:24:43;15.90;99.90
3854;DHT22;1942;48.770;8.934;2022-07-10T03:27:12;15.90;99.90
3854;DHT22;1942;48.770;8.934;2022-07-10T03:29:39;15.80;99.90
3854;DHT22;1942;48.770;8.934;2022-07-10T03:32:06;15.70;99.90
3854;DHT22;1942;48.770;8.934;2022-07-10T03:34:33;15.60;99.90
3854;DHT22;1942;48.770;8.934;2022-07-10T03:37:02;15.60;99.90
3854;DHT22;1942;48.770;8.934;2022-07-10T03:39:29;15.60;99.90
3854;DHT22;1942;48.770;8.934;2022-07-10T03:41:55;15.50;99.90
3854;DHT22;1942;48.770;8.934;2022-07-10T03:44:22;15.50;99.90
3854;DHT22;1942;48.770;8.934;2022-07-10T03:46:49;15.50;99.90
3854;DHT22;1942;48.770;8.934;2022-07-10T03:49:16;15.40;99.90
3854;DHT22;1942;48.770;8.934;2022-07-10T03:51:42;15.40;99.90
3854;DHT22;1942;48.770;8.934;2022-07-10T03:54:11;15.40;99.90
3854;DHT22;1942;48.770;8.934;2022-07-10T03:56:37;15.50;99.90
3854;DHT22;1942;48.770;8.934;2022-07-10T03:59:22;15.40;99.90
3854;DHT22;1942;48.770;8.934;2022-07-10T04:01:48;15.30;99.90
3854;DHT22;1942;48.770;8.934;2022-07-10T04:04:15;15.30;99.90
3854;DHT22;1942;48.770;8.934;2022-07-10T04:06:42;15.30;99.90
3854;DHT22;1942;48.770;8.934;2022-07-10T04:09:10;15.30;99.90
3854;DHT22;1942;48.770;8.934;2022-07-10T04:11:37;15.40;99.90
3854;DHT22;1942;48.770;8.934;2022-07-10T04:14:03;15.30;99.90
3854;DHT22;1942;48.770;8.934;2022-07-10T04:16:30;15.40;99.90
3854;DHT22;1942;48.770;8.934;2022-07-10T04:18:57;15.30;99.90
3854;DHT22;1942;48.770;8.934;2022-07-10T04:21:23;15.20;99.90
3854;DHT22;1942;48.770;8.934;2022-07-10T04:23:50;15.20;99.90
3854;DHT22;1942;48.770;8.934;2022-07-10T04:26:18;15.20;99.90
3854;DHT22;1942;48.770;8.934;2022-07-10T04:28:45;15.30;99.90
3854;DHT22;1942;48.770;8.934;2022-07-10T04:31:12;15.10;99.90
3854;DHT22;1942;48.770;8.934;2022-07-10T04:33:38;15.00;99.90
3854;DHT22;1942;48.770;8.934;2022-07-10T04:36:06;15.10;99.90
3854;DHT22;1942;48.770;8.934;2022-07-10T04:38:32;15.10;99.90
3854;DHT22;1942;48.770;8.934;2022-07-10T04:40:59;15.20;99.90
3854;DHT22;1942;48.770;8.934;2022-07-10T04:43:27;15.10;99.90
3854;DHT22;1942;48.770;8.934;2022-07-10T04:45:56;15.10;99.90
3854;DHT22;1942;48.770;8.934;2022-07-10T04:48:23;15.10;99.90
3854;DHT22;1942;48.770;8.934;2022-07-10T04:50:50;15.10;99.90
3854;DHT22;1942;48.770;8.934;2022-07-10T04:53:16;15.20;99.90
3854;DHT22;1942;48.770;8.934;2022-07-10T04:55:43;15.30;99.90
3854;DHT22;1942;48.770;8.934;2022-07-10T04:58:10;15.30;99.90
3854;DHT22;1942;48.770;8.934;2022-07-10T05:00:38;15.30;99.90
3854;DHT22;1942;48.770;8.934;2022-07-10T05:03:04;15.50;99.90
3854;DHT22;1942;48.770;8.934;2022-07-10T05:05:31;15.50;99.90
3854;DHT22;1942;48.770;8.934;2022-07-10T05:07:58;15.60;99.90
3854;DHT22;1942;48.770;8.934;2022-07-10T05:10:24;15.60;99.90
3854;DHT22;1942;48.770;8.934;2022-07-10T05:12:52;15.60;99.90
3854;DHT22;1942;48.770;8.934;2022-07-10T05:15:19;15.50;99.90
3854;DHT22;1942;48.770;8.934;2022-07-10T05:17:47;15.60;99.90
3854;DHT22;1942;48.770;8.934;2022-07-10T05:20:14;15.60;99.90
3854;DHT22;1942;48.770;8.934;2022-07-10T05:22:41;15.60;99.90
3854;DHT22;1942;48.770;8.934;2022-07-10T05:25:07;15.50;99.90
3854;DHT22;1942;48.770;8.934;2022-07-10T05:27:34;15.60;99.90
3854;DHT22;1942;48.770;8.934;2022-07-10T05:30:01;15.50;99.90
3854;DHT22;1942;48.770;8.934;2022-07-10T05:32:28;15.50;99.90
3854;DHT22;1942;48.770;8.934;2022-07-10T05:34:57;15.60;99.90
3854;DHT22;1942;48.770;8.934;2022-07-10T05:37:24;15.60;99.90
3854;DHT22;1942;48.770;8.934;2022-07-10T05:39:50;15.70;99.90
3854;DHT22;1942;48.770;8.934;2022-07-10T05:42:17;15.70;99.90
3854;DHT22;1942;48.770;8.934;2022-07-10T05:44:44;15.60;99.90
3854;DHT22;1942;48.770;8.934;2022-07-10T05:47:10;15.60;99.90
3854;DHT22;1942;48.770;8.934;2022-07-10T05:49:38;15.50;99.90
3854;DHT22;1942;48.770;8.934;2022-07-10T05:52:06;15.40;99.90
3854;DHT22;1942;48.770;8.934;2022-07-10T05:54:33;15.50;99.90
3854;DHT22;1942;48.770;8.934;2022-07-10T05:57:00;15.40;99.90
3854;DHT22;1942;48.770;8.934;2022-07-10T05:59:26;15.60;99.90
3854;DHT22;1942;48.770;8.934;2022-07-10T06:01:53;15.60;99.90
3854;DHT22;1942;48.770;8.934;2022-07-10T06:04:20;15.60;99.90
3854;DHT22;1942;48.770;8.934;2022-07-10T06:06:46;15.60;99.90
3854;DHT22;1942;48.770;8.934;2022-07-10T06:09:15;15.70;99.90
3854;DHT22;1942;48.770;8.934;2022-07-10T06:11:41;15.70;99.90
3854;DHT22;1942;48.770;8.934;2022-07-10T06:14:09;15.90;99.90
3854;DHT22;1942;48.770;8.934;2022-07-10T06:16:36;16.00;99.90
3854;DHT22;1942;48.770;8.934;2022-07-10T06:19:03;15.90;99.90
3854;DHT22;1942;48.770;8.934;2022-07-10T06:21:30;16.00;99.90
3854;DHT22;1942;48.770;8.934;2022-07-10T06:23:57;16.20;99.90
3854;DHT22;1942;48.770;8.934;2022-07-10T06:26:25;16.10;99.90
3854;DHT22;1942;48.770;8.934;2022-07-10T06:28:52;15.90;99.90
3854;DHT22;1942;48.770;8.934;2022-07-10T06:31:19;15.90;99.90
3854;DHT22;1942;48.770;8.934;2022-07-10T06:33:45;15.90;99.90
3854;DHT22;1942;48.770;8.934;2022-07-10T06:36:12;15.90;99.90
3854;DHT22;1942;48.770;8.934;2022-07-10T06:38:41;16.00;99.90
3854;DHT22;1942;48.770;8.934;2022-07-10T06:41:08;16.20;99.90
3854;DHT22;1942;48.770;8.934;2022-07-10T06:43:36;16.30;99.90
3854;DHT22;1942;48.770;8.934;2022-07-10T06:46:03;16.40;99.90
3854;DHT22;1942;48.770;8.934;2022-07-10T06:48:30;16.30;99.90
3854;DHT22;1942;48.770;8.934;2022-07-10T06:50:56;16.40;99.90
3854;DHT22;1942;48.770;8.934;2022-07-10T06:53:22;16.50;99.90
3854;DHT22;1942;48.770;8.934;2022-07-10T06:55:52;16.70;99.90
3854;DHT22;1942;48.770;8.934;2022-07-10T06:58:19;16.70;99.90
3854;DHT22;1942;48.770;8.934;2022-07-10T07:00:47;16.80;99.90
3854;DHT22;1942;48.770;8.934;2022-07-10T07:03:14;16.80;99.90
3854;DHT22;1942;48.770;8.934;2022-07-10T07:05:41;16.90;99.90
3854;DHT22;1942;48.770;8.934;2022-07-10T07:08:08;16.90;99.90
3854;DHT22;1942;48.770;8.934;2022-07-10T07:10:37;16.90;99.90
3854;DHT22;1942;48.770;8.934;2022-07-10T07:13:04;17.00;99.90
3854;DHT22;1942;48.770;8.934;2022-07-10T07:15:30;17.00;99.90
3854;DHT22;1942;48.770;8.934;2022-07-10T07:18:02;16.90;99.90
3854;DHT22;1942;48.770;8.934;2022-07-10T07:20:37;17.00;99.90
3854;DHT22;1942;48.770;8.934;2022-07-10T07:23:22;17.00;99.90
3854;DHT22;1942;48.770;8.934;2022-07-10T07:25:49;17.00;99.90
3854;DHT22;1942;48.770;8.934;2022-07-10T07:28:17;17.00;99.90
3854;DHT22;1942;48.770;8.934;2022-07-10T07:30:44;17.00;99.90
3854;DHT22;1942;48.770;8.934;2022-07-10T07:33:13;17.00;99.90
3854;DHT22;1942;48.770;8.934;2022-07-10T07:35:40;16.90;99.90
3854;DHT22;1942;48.770;8.934;2022-07-10T07:38:07;16.90;99.90
3854;DHT22;1942;48.770;8.934;2022-07-10T07:40:34;16.80;99.90
3854;DHT22;1942;48.770;8.934;2022-07-10T07:43:04;16.80;99.90
3854;DHT22;1942;48.770;8.934;2022-07-10T07:45:32;16.90;99.90
3854;DHT22;1942;48.770;8.934;2022-07-10T07:47:59;17.00;99.90
3854;DHT22;1942;48.770;8.934;2022-07-10T07:50:31;17.10;99.90
3854;DHT22;1942;48.770;8.934;2022-07-10T07:53:04;17.20;99.90
3854;DHT22;1942;48.770;8.934;2022-07-10T07:55:38;17.30;99.90
3854;DHT22;1942;48.770;8.934;2022-07-10T07:58:10;17.40;99.90
3854;DHT22;1942;48.770;8.934;2022-07-10T08:00:42;17.60;99.90
3854;DHT22;1942;48.770;8.934;2022-07-10T08:03:10;17.80;99.90
3854;DHT22;1942;48.770;8.934;2022-07-10T08:05:43;17.80;99.90
3854;DHT22;1942;48.770;8.934;2022-07-10T08:08:12;17.90;99.90
3854;DHT22;1942;48.770;8.934;2022-07-10T08:10:39;17.90;99.90
3854;DHT22;1942;48.770;8.934;2022-07-10T08:13:08;18.00;99.90
3854;DHT22;1942;48.770;8.934;2022-07-10T08:15:38;18.00;99.90
3854;DHT22;1942;48.770;8.934;2022-07-10T08:18:07;17.90;99.90
3854;DHT22;1942;48.770;8.934;2022-07-10T08:20:34;17.90;99.90
3854;DHT22;1942;48.770;8.934;2022-07-10T08:23:02;17.90;99.90
3854;DHT22;1942;48.770;8.934;2022-07-10T08:25:37;17.90;99.90
3854;DHT22;1942;48.770;8.934;2022-07-10T08:28:07;18.00;99.90
3854;DHT22;1942;48.770;8.934;2022-07-10T08:30:35;18.00;99.90
3854;DHT22;1942;48.770;8.934;2022-07-10T08:33:04;18.00;99.90
3854;DHT22;1942;48.770;8.934;2022-07-10T08:35:31;18.00;99.90
3854;DHT22;1942;48.770;8.934;2022-07-10T08:37:59;17.90;99.90
3854;DHT22;1942;48.770;8.934;2022-07-10T08:40:34;17.90;99.90
3854;DHT22;1942;48.770;8.934;2022-07-10T08:43:06;17.90;99.90
3854;DHT22;1942;48.770;8.934;2022-07-10T08:45:36;18.00;99.90
3854;DHT22;1942;48.770;8.934;2022-07-10T08:48:09;18.10;99.90
3854;DHT22;1942;48.770;8.934;2022-07-10T08:50:38;18.20;99.90
3854;DHT22;1942;48.770;8.934;2022-07-10T08:53:09;18.20;99.90
3854;DHT22;1942;48.770;8.934;2022-07-10T08:55:42;18.40;99.90
3854;DHT22;1942;48.770;8.934;2022-07-10T08:58:13;18.40;99.90
3854;DHT22;1942;48.770;8.934;2022-07-10T09:00:40;18.50;99.90
3854;DHT22;1942;48.770;8.934;2022-07-10T09:03:09;18.50;99.90
3854;DHT22;1942;48.770;8.934;2022-07-10T09:05:37;18.70;99.90
3854;DHT22;1942;48.770;8.934;2022-07-10T09:08:07;19.00;99.90
3854;DHT22;1942;48.770;8.934;2022-07-10T09:10:47;19.00;99.90
3854;DHT22;1942;48.770;8.934;2022-07-10T09:13:14;19.00;99.90
3854;DHT22;1942;48.770;8.934;2022-07-10T09:15:47;18.80;99.90
3854;DHT22;1942;48.770;8.934;2022-07-10T09:18:19;18.70;99.90
3854;DHT22;1942;48.770;8.934;2022-07-10T09:20:50;18.50;99.90
3854;DHT22;1942;48.770;8.934;2022-07-10T09:23:19;18.40;99.90
3854;DHT22;1942;48.770;8.934;2022-07-10T09:25:49;18.50;99.90
3854;DHT22;1942;48.770;8.934;2022-07-10T09:28:17;18.70;99.90
3854;DHT22;1942;48.770;8.934;2022-07-10T09:30:45;18.90;99.90
3854;DHT22;1942;48.770;8.934;2022-07-10T09:33:25;19.00;99.90
3854;DHT22;1942;48.770;8.934;2022-07-10T09:36:00;19.30;99.90
3854;DHT22;1942;48.770;8.934;2022-07-10T09:38:52;19.30;99.90
3854;DHT22;1942;48.770;8.934;2022-07-10T09:41:29;19.20;99.90
3854;DHT22;1942;48.770;8.934;2022-07-10T09:43:57;19.00;99.90
3854;DHT22;1942;48.770;8.934;2022-07-10T09:46:31;19.10;99.90
3854;DHT22;1942;48.770;8.934;2022-07-10T09:49:12;19.30;99.30
3854;DHT22;1942;48.770;8.934;2022-07-10T09:51:43;19.30;99.40
3854;DHT22;1942;48.770;8.934;2022-07-10T09:54:17;19.20;99.70
3854;DHT22;1942;48.770;8.934;2022-07-10T09:56:49;19.20;99.50
3854;DHT22;1942;48.770;8.934;2022-07-10T09:59:18;19.20;99.30
3854;DHT22;1942;48.770;8.934;2022-07-10T10:01:46;19.30;99.90
3854;DHT22;1942;48.770;8.934;2022-07-10T10:04:15;19.60;98.80
3854;DHT22;1942;48.770;8.934;2022-07-10T10:06:43;19.90;98.40
3854;DHT22;1942;48.770;8.934;2022-07-10T10:09:18;20.10;97.50
3854;DHT22;1942;48.770;8.934;2022-07-10T10:11:51;20.20;96.40
3854;DHT22;1942;48.770;8.934;2022-07-10T10:14:19;20.30;96.20
3854;DHT22;1942;48.770;8.934;2022-07-10T10:16:47;20.10;96.00
3854;DHT22;1942;48.770;8.934;2022-07-10T10:19:14;20.30;95.50
3854;DHT22;1942;48.770;8.934;2022-07-10T10:21:59;20.40;96.60
3854;DHT22;1942;48.770;8.934;2022-07-10T10:24:31;20.60;95.90
3854;DHT22;1942;48.770;8.934;2022-07-10T10:27:00;20.60;95.80
3854;DHT22;1942;48.770;8.934;2022-07-10T10:29:27;20.40;93.90
3854;DHT22;1942;48.770;8.934;2022-07-10T10:31:55;20.20;94.20
3854;DHT22;1942;48.770;8.934;2022-07-10T10:34:40;20.20;94.40
3854;DHT22;1942;48.770;8.934;2022-07-10T10:37:36;20.30;94.00
3854;DHT22;1942;48.770;8.934;2022-07-10T10:40:04;20.60;95.10
3854;DHT22;1942;48.770;8.934;2022-07-10T10:42:35;21.00;92.50
3854;DHT22;1942;48.770;8.934;2022-07-10T10:45:24;21.20;91.90
3854;DHT22;1942;48.770;8.934;2022-07-10T10:48:00;21.40;90.50
3854;DHT22;1942;48.770;8.934;2022-07-10T10:50:37;21.20;90.60
3854;DHT22;1942;48.770;8.934;2022-07-10T10:53:04;21.00;90.40
3854;DHT22;1942;48.770;8.934;2022-07-10T10:55:31;21.00;90.90
3854;DHT22;1942;48.770;8.934;2022-07-10T10:58:15;20.80;92.80
3854;DHT22;1942;48.770;8.934;2022-07-10T11:00:43;20.90;91.80
3854;DHT22;1942;48.770;8.934;2022-07-10T11:03:12;20.90;92.40
3854;DHT22;1942;48.770;8.934;2022-07-10T11:05:41;21.00;90.20
3854;DHT22;1942;48.770;8.934;2022-07-10T11:08:08;21.20;90.50
3854;DHT22;1942;48.770;8.934;2022-07-10T11:10:37;21.50;91.10
3854;DHT22;1942;48.770;8.934;2022-07-10T11:13:05;21.60;91.40
3854;DHT22;1942;48.770;8.934;2022-07-10T11:15:35;21.40;90.20
3854;DHT22;1942;48.770;8.934;2022-07-10T11:18:10;21.00;89.30
3854;DHT22;1942;48.770;8.934;2022-07-10T11:20:39;20.80;87.80
3854;DHT22;1942;48.770;8.934;2022-07-10T11:23:14;20.80;88.10
3854;DHT22;1942;48.770;8.934;2022-07-10T11:25:49;20.90;87.30
3854;DHT22;1942;48.770;8.934;2022-07-10T11:28:32;21.30;89.50
3854;DHT22;1942;48.770;8.934;2022-07-10T11:31:00;21.40;87.90
3854;DHT22;1942;48.770;8.934;2022-07-10T11:33:27;21.30;86.00
3854;DHT22;1942;48.770;8.934;2022-07-10T11:35:54;21.20;87.90
3854;DHT22;1942;48.770;8.934;2022-07-10T11:38:22;21.40;88.70
3854;DHT22;1942;48.770;8.934;2022-07-10T11:40:49;21.90;87.10
3854;DHT22;1942;48.770;8.934;2022-07-10T11:43:17;22.30;82.30
3854;DHT22;1942;48.770;8.934;2022-07-10T11:45:47;22.60;80.30
3854;DHT22;1942;48.770;8.934;2022-07-10T11:48:20;22.80;81.60
3854;DHT22;1942;48.770;8.934;2022-07-10T11:50:49;23.00;80.20
3854;DHT22;1942;48.770;8.934;2022-07-10T11:53:24;23.20;85.60
3854;DHT22;1942;48.770;8.934;2022-07-10T11:55:51;23.30;81.30
3854;DHT22;1942;48.770;8.934;2022-07-10T11:58:18;22.90;80.00
3854;DHT22;1942;48.770;8.934;2022-07-10T12:00:58;22.50;76.40
3854;DHT22;1942;48.770;8.934;2022-07-10T12:03:27;22.40;79.80
3854;DHT22;1942;48.770;8.934;2022-07-10T12:05:53;22.80;79.20
3854;DHT22;1942;48.770;8.934;2022-07-10T12:08:20;23.10;74.90
3854;DHT22;1942;48.770;8.934;2022-07-10T12:10:47;23.30;75.70
3854;DHT22;1942;48.770;8.934;2022-07-10T12:13:14;23.60;77.60
3854;DHT22;1942;48.770;8.934;2022-07-10T12:15:43;23.90;75.00
3854;DHT22;1942;48.770;8.934;2022-07-10T12:18:16;23.70;73.60
3854;DHT22;1942;48.770;8.934;2022-07-10T12:20:45;23.30;75.30
3854;DHT22;1942;48.770;8.934;2022-07-10T12:23:13;23.30;73.40
3854;DHT22;1942;48.770;8.934;2022-07-10T12:25:42;23.50;73.20
3854;DHT22;1942;48.770;8.934;2022-07-10T12:28:09;23.70;72.90
3854;DHT22;1942;48.770;8.934;2022-07-10T12:31:00;23.60;73.30
3854;DHT22;1942;48.770;8.934;2022-07-10T12:33:55;23.60;75.40
3854;DHT22;1942;48.770;8.934;2022-07-10T12:36:46;23.80;79.00
3854;DHT22;1942;48.770;8.934;2022-07-10T12:39:20;23.90;78.10
3854;DHT22;1942;48.770;8.934;2022-07-10T12:42:00;24.10;72.80
3854;DHT22;1942;48.770;8.934;2022-07-10T12:44:49;24.50;75.50
3854;DHT22;1942;48.770;8.934;2022-07-10T12:47:43;24.90;71.10
3854;DHT22;1942;48.770;8.934;2022-07-10T12:50:34;24.90;73.00
3854;DHT22;1942;48.770;8.934;2022-07-10T12:53:23;24.90;71.60
3854;DHT22;1942;48.770;8.934;2022-07-10T12:56:13;24.70;70.70
3854;DHT22;1942;48.770;8.934;2022-07-10T12:59:14;24.80;70.40
3854;DHT22;1942;48.770;8.934;2022-07-10T13:05:00;24.80;69.60
3854;DHT22;1942;48.770;8.934;2022-07-10T13:07:50;25.00;68.00
3854;DHT22;1942;48.770;8.934;2022-07-10T13:10:40;25.00;68.00
3854;DHT22;1942;48.770;8.934;2022-07-10T13:13:42;25.00;71.40
3854;DHT22;1942;48.770;8.934;2022-07-10T13:16:33;25.10;69.80
3854;DHT22;1942;48.770;8.934;2022-07-10T13:19:28;25.20;66.00
3854;DHT22;1942;48.770;8.934;2022-07-10T13:22:09;25.20;70.90
3854;DHT22;1942;48.770;8.934;2022-07-10T13:24:36;25.30;65.50
3854;DHT22;1942;48.770;8.934;2022-07-10T13:27:15;25.40;65.00
3854;DHT22;1942;48.770;8.934;2022-07-10T13:30:08;25.50;66.00
3854;DHT22;1942;48.770;8.934;2022-07-10T13:32:44;25.30;68.20
3854;DHT22;1942;48.770;8.934;2022-07-10T13:35:48;25.20;66.70
3854;DHT22;1942;48.770;8.934;2022-07-10T13:41:48;25.40;70.60
3854;DHT22;1942;48.770;8.934;2022-07-10T13:44:53;25.00;67.30
3854;DHT22;1942;48.770;8.934;2022-07-10T13:47:36;24.70;67.90
3854;DHT22;1942;48.770;8.934;2022-07-10T13:50:21;24.80;70.40
3854;DHT22;1942;48.770;8.934;2022-07-10T13:53:14;25.00;68.00
3854;DHT22;1942;48.770;8.934;2022-07-10T13:59:06;25.30;67.80
3854;DHT22;1942;48.770;8.934;2022-07-10T14:05:00;24.70;67.80
3854;DHT22;1942;48.770;8.934;2022-07-10T14:08:02;24.20;72.50
3854;DHT22;1942;48.770;8.934;2022-07-10T14:10:37;24.50;71.30
3854;DHT22;1942;48.770;8.934;2022-07-10T14:13:29;24.70;68.60
3854;DHT22;1942;48.770;8.934;2022-07-10T14:16:16;24.70;67.90
3854;DHT22;1942;48.770;8.934;2022-07-10T14:19:07;24.70;68.70
3854;DHT22;1942;48.770;8.934;2022-07-10T14:22:06;24.90;74.60
3854;DHT22;1942;48.770;8.934;2022-07-10T14:24:32;25.10;68.80
3854;DHT22;1942;48.770;8.934;2022-07-10T14:27:13;25.20;66.40
3854;DHT22;1942;48.770;8.934;2022-07-10T14:32:51;25.50;71.10
3854;DHT22;1942;48.770;8.934;2022-07-10T14:38:28;25.50;66.50
3854;DHT22;1942;48.770;8.934;2022-07-10T14:41:27;25.20;65.70
3854;DHT22;1942;48.770;8.934;2022-07-10T14:44:22;24.90;65.90
3854;DHT22;1942;48.770;8.934;2022-07-10T14:47:05;24.20;67.40
3854;DHT22;1942;48.770;8.934;2022-07-10T14:49:43;24.40;70.70
3854;DHT22;1942;48.770;8.934;2022-07-10T14:52:11;24.30;66.50
3854;DHT22;1942;48.770;8.934;2022-07-10T14:54:39;23.90;68.90
3854;DHT22;1942;48.770;8.934;2022-07-10T14:57:06;24.00;66.50
3854;DHT22;1942;48.770;8.934;2022-07-10T14:59:34;24.10;66.70
3854;DHT22;1942;48.770;8.934;2022-07-10T15:02:09;23.90;69.50
3854;DHT22;1942;48.770;8.934;2022-07-10T15:04:44;23.80;70.10
3854;DHT22;1942;48.770;8.934;2022-07-10T15:07:16;23.60;67.30
3854;DHT22;1942;48.770;8.934;2022-07-10T15:10:03;23.10;69.40
3854;DHT22;1942;48.770;8.934;2022-07-10T15:12:34;23.00;71.70
3854;DHT22;1942;48.770;8.934;2022-07-10T15:15:07;23.10;73.10
3854;DHT22;1942;48.770;8.934;2022-07-10T15:17:38;23.50;70.50
3854;DHT22;1942;48.770;8.934;2022-07-10T15:20:11;23.60;70.90
3854;DHT22;1942;48.770;8.934;2022-07-10T15:22:45;23.50;72.40
3854;DHT22;1942;48.770;8.934;2022-07-10T15:25:17;23.80;72.50
3854;DHT22;1942;48.770;8.934;2022-07-10T15:27:46;24.00;73.00
3854;DHT22;1942;48.770;8.934;2022-07-10T15:30:15;24.30;69.40
3854;DHT22;1942;48.770;8.934;2022-07-10T15:32:42;23.90;68.70
3854;DHT22;1942;48.770;8.934;2022-07-10T15:35:09;23.50;69.30
3854;DHT22;1942;48.770;8.934;2022-07-10T15:37:36;23.10;68.40
3854;DHT22;1942;48.770;8.934;2022-07-10T15:40:05;23.20;69.40
3854;DHT22;1942;48.770;8.934;2022-07-10T15:42:33;23.30;69.10
3854;DHT22;1942;48.770;8.934;2022-07-10T15:44:59;23.40;69.70
3854;DHT22;1942;48.770;8.934;2022-07-10T15:47:26;23.40;76.80
3854;DHT22;1942;48.770;8.934;2022-07-10T15:49:53;23.60;68.50
3854;DHT22;1942;48.770;8.934;2022-07-10T15:52:20;23.80;68.10
3854;DHT22;1942;48.770;8.934;2022-07-10T15:54:47;23.90;68.70
3854;DHT22;1942;48.770;8.934;2022-07-10T15:57:15;23.90;68.70
3854;DHT22;1942;48.770;8.934;2022-07-10T15:59:46;24.00;69.80
3854;DHT22;1942;48.770;8.934;2022-07-10T16:02:20;23.70;70.70
3854;DHT22;1942;48.770;8.934;2022-07-10T16:04:49;23.40;70.10
3854;DHT22;1942;48.770;8.934;2022-07-10T16:07:16;22.90;70.00
3854;DHT22;1942;48.770;8.934;2022-07-10T16:09:43;22.30;72.10
3854;DHT22;1942;48.770;8.934;2022-07-10T16:12:14;21.70;72.90
3854;DHT22;1942;48.770;8.934;2022-07-10T16:14:45;21.30;76.40
3854;DHT22;1942;48.770;8.934;2022-07-10T16:17:15;21.00;75.70
3854;DHT22;1942;48.770;8.934;2022-07-10T16:19:42;21.00;76.00
3854;DHT22;1942;48.770;8.934;2022-07-10T16:22:14;21.00;77.20
3854;DHT22;1942;48.770;8.934;2022-07-10T16:24:45;21.00;77.10
3854;DHT22;1942;48.770;8.934;2022-07-10T16:27:29;21.10;77.80
3854;DHT22;1942;48.770;8.934;2022-07-10T16:29:58;21.10;79.10
3854;DHT22;1942;48.770;8.934;2022-07-10T16:32:28;21.00;77.80
3854;DHT22;1942;48.770;8.934;2022-07-10T16:34:55;21.00;78.90
3854;DHT22;1942;48.770;8.934;2022-07-10T16:37:24;21.00;79.00
3854;DHT22;1942;48.770;8.934;2022-07-10T16:39:51;20.90;78.20
3854;DHT22;1942;48.770;8.934;2022-07-10T16:42:18;20.80;80.00
3854;DHT22;1942;48.770;8.934;2022-07-10T16:44:48;20.50;80.10